Time;durP1;ratioP1;P1;durP2;ratioP2;P2;SDS_P1;SDS_P2;PMS_P1;PMS_P2;Temp;Humidity;BMP_temperature;BMP_pressure;BME280_temperature;BME280_humidity;BME280_pressure;Samples;Min_cycle;Max_cycle;Signal;HPM_P1;HPM_P2
2023/05/15 00:00:12;;;;;;;9.37;6.17;;;12.70;99.90;;;;;;5017642;28;20605;-82
2023/05/15 00:02:38;;;;;;;8.90;6.80;;;12.70;99.90;;;;;;5016530;28;20181;-82
2023/05/15 00:05:07;;;;;;;9.50;6.87;;;12.70;99.90;;;;;;5015005;28;20248;-82
2023/05/15 00:07:34;;;;;;;10.50;7.80;;;12.70;99.90;;;;;;5016679;28;20172;-82
2023/05/15 00:09:59;;;;;;;8.77;6.50;;;12.70;99.90;;;;;;5016601;28;20640;-82
2023/05/15 00:12:25;;;;;;;10.17;7.03;;;12.70;99.90;;;;;;5016470;28;20197;-80
2023/05/15 00:14:51;;;;;;;10.30;7.00;;;12.70;99.90;;;;;;5015737;28;20208;-80
2023/05/15 00:17:16;;;;;;;12.10;7.83;;;12.70;99.90;;;;;;5017211;28;20605;-80
2023/05/15 00:19:42;;;;;;;9.97;7.77;;;12.50;99.90;;;;;;5017339;28;20204;-80
2023/05/15 00:22:07;;;;;;;9.80;7.03;;;12.60;99.90;;;;;;5015960;28;20177;-80
2023/05/15 00:24:33;;;;;;;14.27;7.80;;;12.60;99.90;;;;;;5015420;28;20208;-82
2023/05/15 00:27:00;;;;;;;8.33;7.30;;;12.60;99.90;;;;;;5017003;28;20173;-82
2023/05/15 00:29:25;;;;;;;15.10;7.40;;;12.60;99.90;;;;;;5016764;28;20202;-82
2023/05/15 00:31:51;;;;;;;11.70;8.10;;;12.60;99.90;;;;;;5015188;28;20272;-81
2023/05/15 00:34:16;;;;;;;12.03;7.77;;;12.70;99.90;;;;;;5014955;28;20200;-81
2023/05/15 00:36:43;;;;;;;11.63;7.60;;;12.70;99.90;;;;;;5016834;28;20202;-81
2023/05/15 00:39:08;;;;;;;12.80;8.47;;;12.70;99.90;;;;;;5015461;28;20173;-82
2023/05/15 00:41:35;;;;;;;14.00;8.67;;;12.50;99.90;;;;;;5016280;28;20536;-82
2023/05/15 00:44:01;;;;;;;13.77;8.90;;;12.50;99.90;;;;;;5016606;28;20525;-82
2023/05/15 00:46:29;;;;;;;15.57;10.77;;;12.50;99.90;;;;;;5016631;28;20177;-82
2023/05/15 00:48:56;;;;;;;14.97;11.40;;;12.50;99.90;;;;;;5014808;28;20202;-82
2023/05/15 00:51:22;;;;;;;19.10;12.43;;;12.50;99.90;;;;;;5016145;28;20193;-82
2023/05/15 00:53:51;;;;;;;21.10;14.07;;;12.50;99.90;;;;;;5016593;28;20230;-82
2023/05/15 00:56:16;;;;;;;18.43;13.10;;;12.60;99.90;;;;;;5015233;28;20580;-82
2023/05/15 00:58:45;;;;;;;30.37;19.00;;;12.60;99.90;;;;;;5016824;28;20169;-81
2023/05/15 01:01:10;;;;;;;26.00;18.63;;;12.60;99.90;;;;;;5015978;28;20208;-82
2023/05/15 01:03:36;;;;;;;25.37;17.70;;;12.70;99.90;;;;;;5017331;28;20173;-82
2023/05/15 01:06:02;;;;;;;22.73;16.13;;;12.70;99.90;;;;;;5015990;28;20177;-82
2023/05/15 01:08:38;;;;;;;18.40;12.83;;;12.70;99.90;;;;;;5016601;28;20189;-82
2023/05/15 01:11:07;;;;;;;16.20;10.77;;;12.70;99.90;;;;;;5016396;28;20643;-81
2023/05/15 01:13:33;;;;;;;17.73;10.33;;;12.70;99.90;;;;;;5015915;28;20212;-82
2023/05/15 01:15:58;;;;;;;15.17;10.30;;;12.60;99.90;;;;;;5015662;28;20548;-82
2023/05/15 01:18:31;;;;;;;13.03;9.97;;;12.60;99.90;;;;;;5015077;28;20485;-82
2023/05/15 01:21:15;;;;;;;12.57;10.30;;;12.50;99.90;;;;;;5015804;28;20200;-83
2023/05/15 01:23:56;;;;;;;14.23;10.50;;;12.70;99.90;;;;;;5015932;28;20193;-82
2023/05/15 01:26:59;;;;;;;14.10;12.60;;;12.50;99.90;;;;;;5016094;28;20161;-82
2023/05/15 01:29:39;;;;;;;13.03;9.93;;;12.50;99.90;;;;;;5015710;28;20176;-82
2023/05/15 01:32:09;;;;;;;14.00;10.13;;;12.50;99.90;;;;;;5017138;28;20169;-82
2023/05/15 01:34:47;;;;;;;12.97;10.17;;;12.50;99.90;;;;;;5015084;28;20656;-80
2023/05/15 01:37:17;;;;;;;20.60;13.10;;;12.50;99.90;;;;;;5014630;28;20176;-81
2023/05/15 01:39:46;;;;;;;17.20;14.50;;;12.50;99.90;;;;;;5015112;28;20201;-80
2023/05/15 01:42:15;;;;;;;22.00;13.33;;;12.50;99.90;;;;;;5014760;28;20169;-81
2023/05/15 01:44:46;;;;;;;19.23;15.57;;;12.50;99.90;;;;;;5013165;28;20185;-80
2023/05/15 01:47:16;;;;;;;22.97;14.70;;;12.40;99.90;;;;;;5015332;28;20177;-81
2023/05/15 01:49:44;;;;;;;21.63;15.30;;;12.40;99.90;;;;;;5015702;28;20241;-80
2023/05/15 01:52:24;;;;;;;23.47;15.40;;;12.40;99.90;;;;;;5016985;28;20268;-80
2023/05/15 01:54:50;;;;;;;22.73;16.67;;;12.40;99.90;;;;;;5016675;28;20188;-80
2023/05/15 01:57:17;;;;;;;24.47;17.50;;;12.40;99.90;;;;;;5014706;28;20226;-80
2023/05/15 01:59:44;;;;;;;26.47;19.23;;;12.30;99.90;;;;;;5013896;28;20196;-81
2023/05/15 02:02:10;;;;;;;24.97;19.27;;;12.30;99.90;;;;;;5014831;28;20188;-80
2023/05/15 02:04:37;;;;;;;27.93;20.80;;;12.40;99.90;;;;;;5014622;28;20241;-81
2023/05/15 02:07:03;;;;;;;30.40;22.23;;;12.50;99.90;;;;;;5014360;28;20185;-81
2023/05/15 02:09:31;;;;;;;30.07;21.80;;;12.50;99.90;;;;;;5015849;28;20177;-80
2023/05/15 02:11:59;;;;;;;27.60;21.40;;;12.50;99.90;;;;;;5013940;28;20676;-81
2023/05/15 02:14:27;;;;;;;35.57;23.27;;;12.60;99.90;;;;;;5013568;28;20200;-81
2023/05/15 02:16:54;;;;;;;29.80;22.70;;;12.60;99.90;;;;;;5015577;28;20303;-80
2023/05/15 02:19:20;;;;;;;29.97;23.23;;;12.70;99.90;;;;;;5015732;28;20222;-80
2023/05/15 02:21:46;;;;;;;29.00;21.57;;;12.80;99.90;;;;;;5015615;28;20177;-81
2023/05/15 02:24:11;;;;;;;29.43;21.10;;;12.80;99.90;;;;;;5017322;28;20180;-81
2023/05/15 02:27:07;;;;;;;30.93;21.30;;;12.70;99.90;;;;;;5014929;28;20185;-80
2023/05/15 02:29:38;;;;;;;29.63;20.60;;;12.70;99.90;;;;;;5016558;28;20153;-81
2023/05/15 02:32:29;;;;;;;29.20;20.03;;;12.70;99.90;;;;;;5014945;28;20318;-81
2023/05/15 02:35:23;;;;;;;26.53;19.47;;;12.70;99.90;;;;;;5017250;28;20253;-81
2023/05/15 02:37:54;;;;;;;25.57;18.87;;;12.70;99.90;;;;;;5016830;28;20176;-80
2023/05/15 02:40:22;;;;;;;23.77;19.33;;;12.70;99.90;;;;;;5014873;28;20382;-80
2023/05/15 02:42:51;;;;;;;28.13;19.77;;;12.80;99.90;;;;;;5014551;28;20181;-81
2023/05/15 02:45:17;;;;;;;26.77;18.53;;;12.80;99.90;;;;;;5016330;28;20257;-81
2023/05/15 02:47:43;;;;;;;23.73;18.80;;;12.80;99.90;;;;;;5014477;28;20203;-80
2023/05/15 02:50:09;;;;;;;27.97;19.43;;;12.80;99.90;;;;;;5014618;28;20272;-80
2023/05/15 02:52:35;;;;;;;27.47;20.13;;;12.70;99.90;;;;;;5014536;28;20173;-80
2023/05/15 02:55:01;;;;;;;24.27;18.23;;;12.80;99.90;;;;;;5016438;28;20197;-81
2023/05/15 02:57:26;;;;;;;28.70;18.33;;;12.70;99.90;;;;;;5018069;28;20172;-80
2023/05/15 02:59:54;;;;;;;23.53;18.30;;;12.80;99.90;;;;;;5018167;28;20584;-81
2023/05/15 03:02:19;;;;;;;23.93;19.97;;;12.70;99.90;;;;;;5019122;28;20259;-80
2023/05/15 03:04:45;;;;;;;26.67;18.40;;;12.80;99.90;;;;;;5018185;28;20244;-81
2023/05/15 03:07:11;;;;;;;25.13;17.70;;;12.70;99.90;;;;;;5017515;28;20188;-80
2023/05/15 03:09:36;;;;;;;22.33;18.20;;;12.70;99.90;;;;;;5019863;28;20211;-81
2023/05/15 03:12:02;;;;;;;26.23;19.53;;;12.70;99.90;;;;;;5018695;28;20196;-80
2023/05/15 03:14:27;;;;;;;26.30;18.17;;;12.70;99.90;;;;;;5020667;28;20292;-80
2023/05/15 03:16:53;;;;;;;23.77;18.70;;;12.70;99.90;;;;;;5019765;28;20174;-80
2023/05/15 03:19:18;;;;;;;22.37;17.93;;;12.80;99.90;;;;;;5021339;28;20176;-80
2023/05/15 03:21:44;;;;;;;23.53;18.10;;;12.80;99.90;;;;;;5021752;28;20177;-80
2023/05/15 03:24:09;;;;;;;23.30;17.47;;;12.70;99.90;;;;;;5018770;28;20181;-81
2023/05/15 03:26:35;;;;;;;27.10;18.40;;;12.70;99.90;;;;;;5017692;28;20207;-83
2023/05/15 03:29:01;;;;;;;22.60;18.27;;;12.70;99.90;;;;;;5017582;28;20177;-81
2023/05/15 03:31:26;;;;;;;33.63;18.23;;;12.70;99.90;;;;;;5016349;28;20231;-82
2023/05/15 03:33:52;;;;;;;26.50;19.80;;;12.70;99.90;;;;;;5016282;28;20192;-81
2023/05/15 03:36:17;;;;;;;26.73;18.90;;;12.60;99.90;;;;;;5017988;28;20640;-82
2023/05/15 03:38:43;;;;;;;24.70;18.97;;;12.60;99.90;;;;;;5017950;28;20183;-81
2023/05/15 03:41:09;;;;;;;26.30;18.47;;;12.50;99.90;;;;;;5016700;28;20683;-81
2023/05/15 03:43:35;;;;;;;27.00;19.60;;;12.60;99.90;;;;;;5018499;28;20210;-81
2023/05/15 03:46:00;;;;;;;24.07;19.13;;;12.50;99.90;;;;;;5018080;28;20256;-81
2023/05/15 03:48:26;;;;;;;27.17;19.47;;;12.50;99.90;;;;;;5016333;28;20665;-81
2023/05/15 03:50:52;;;;;;;26.70;20.07;;;12.50;99.90;;;;;;5017192;28;20275;-82
2023/05/15 03:53:17;;;;;;;27.40;20.10;;;12.70;99.90;;;;;;5015679;28;20212;-81
2023/05/15 03:55:43;;;;;;;28.43;21.63;;;12.50;99.90;;;;;;5016045;28;20180;-82
2023/05/15 03:58:08;;;;;;;31.33;20.70;;;12.50;99.90;;;;;;5017194;28;20168;-81
2023/05/15 04:00:34;;;;;;;28.40;21.17;;;12.40;99.90;;;;;;5017419;28;20200;-81
2023/05/15 04:03:00;;;;;;;31.30;22.73;;;12.40;99.90;;;;;;5019082;28;20552;-81
2023/05/15 04:05:26;;;;;;;34.73;21.43;;;12.50;99.90;;;;;;5017184;28;20177;-81
2023/05/15 04:07:51;;;;;;;38.77;23.10;;;12.50;99.90;;;;;;5016737;28;20181;-81
2023/05/15 04:10:17;;;;;;;34.87;22.70;;;12.40;99.90;;;;;;5020855;28;20201;-81
2023/05/15 04:12:42;;;;;;;34.67;22.60;;;12.50;99.90;;;;;;5020447;28;20208;-81
2023/05/15 04:15:22;;;;;;;33.53;23.13;;;12.50;99.90;;;;;;5017806;28;20173;-81
2023/05/15 04:17:50;;;;;;;36.97;23.83;;;12.50;99.90;;;;;;5017580;28;20207;-81
2023/05/15 04:20:20;;;;;;;39.17;26.30;;;12.40;99.90;;;;;;5020655;28;20189;-81
2023/05/15 04:22:46;;;;;;;42.77;26.77;;;12.40;99.90;;;;;;5021872;28;20178;-81
2023/05/15 04:25:16;;;;;;;39.60;24.80;;;12.40;99.90;;;;;;5021253;28;20218;-81
2023/05/15 04:27:43;;;;;;;43.10;27.80;;;12.40;99.90;;;;;;5017405;28;20180;-81
2023/05/15 04:30:10;;;;;;;43.33;27.20;;;12.50;99.90;;;;;;5016345;28;20193;-81
2023/05/15 04:32:36;;;;;;;43.40;29.03;;;12.50;99.90;;;;;;5015990;28;20550;-83
2023/05/15 04:35:08;;;;;;;49.50;28.90;;;12.50;99.90;;;;;;5018776;28;20176;-83
2023/05/15 04:37:35;;;;;;;45.93;30.00;;;12.60;99.90;;;;;;5017267;28;20211;-83
2023/05/15 04:40:00;;;;;;;50.07;31.30;;;12.50;99.90;;;;;;5017982;28;20200;-82
2023/05/15 04:42:26;;;;;;;56.93;30.87;;;12.50;99.90;;;;;;5016953;28;20181;-83
2023/05/15 04:44:52;;;;;;;62.57;34.83;;;12.60;99.90;;;;;;5018133;28;20185;-81
2023/05/15 04:47:17;;;;;;;60.87;37.43;;;12.60;99.90;;;;;;5018192;28;20208;-82
2023/05/15 04:49:43;;;;;;;65.60;37.23;;;12.60;99.90;;;;;;5018763;28;20193;-82
2023/05/15 04:52:09;;;;;;;74.90;38.93;;;12.60;99.90;;;;;;5016322;28;20234;-83
2023/05/15 04:54:34;;;;;;;71.23;39.63;;;12.60;99.90;;;;;;5014148;28;20201;-82
2023/05/15 04:57:00;;;;;;;70.13;39.20;;;12.60;99.90;;;;;;5014641;28;20179;-83
2023/05/15 04:59:27;;;;;;;69.33;37.33;;;12.60;99.90;;;;;;5015012;28;20200;-83
2023/05/15 05:01:53;;;;;;;68.80;37.23;;;12.60;99.90;;;;;;5016935;28;20165;-82
2023/05/15 05:04:19;;;;;;;68.23;38.90;;;12.60;99.90;;;;;;5015207;28;20165;-81
2023/05/15 05:06:45;;;;;;;72.97;38.70;;;12.50;99.90;;;;;;5014032;28;20172;-83
2023/05/15 05:09:10;;;;;;;58.27;35.17;;;12.50;99.90;;;;;;5014249;28;20181;-82
2023/05/15 05:11:38;;;;;;;49.23;30.87;;;12.50;99.90;;;;;;5015265;28;20249;-83
2023/05/15 05:14:03;;;;;;;39.10;26.53;;;12.50;99.90;;;;;;5014575;28;20273;-81
2023/05/15 05:16:29;;;;;;;40.37;28.10;;;12.40;99.90;;;;;;5017112;28;20660;-82
2023/05/15 05:18:55;;;;;;;44.17;31.20;;;12.40;99.90;;;;;;5028212;28;20196;-82
2023/05/15 05:21:20;;;;;;;42.03;29.67;;;12.40;99.90;;;;;;5124630;28;20189;-82
2023/05/15 05:23:46;;;;;;;44.50;31.23;;;12.40;99.90;;;;;;5072724;28;20180;-80
2023/05/15 05:26:11;;;;;;;47.23;32.27;;;12.40;99.90;;;;;;5022595;28;20177;-80
2023/05/15 05:28:37;;;;;;;43.70;29.20;;;12.40;99.90;;;;;;5037701;28;20189;-81
2023/05/15 05:31:03;;;;;;;44.13;31.07;;;12.40;99.90;;;;;;5023705;28;20265;-80
2023/05/15 05:33:28;;;;;;;43.53;29.93;;;12.40;99.90;;;;;;5039025;28;20204;-80
2023/05/15 05:35:54;;;;;;;36.33;25.73;;;12.50;99.90;;;;;;5038600;28;20188;-80
2023/05/15 05:38:20;;;;;;;36.57;25.80;;;12.50;99.90;;;;;;5023211;28;20229;-80
2023/05/15 05:40:45;;;;;;;34.37;25.47;;;12.40;99.90;;;;;;5023124;28;20204;-80
2023/05/15 05:43:11;;;;;;;34.27;24.37;;;12.40;99.90;;;;;;5037908;28;20185;-81
2023/05/15 05:45:36;;;;;;;31.83;22.40;;;12.40;99.90;;;;;;5038016;28;20256;-80
2023/05/15 05:48:02;;;;;;;33.07;22.87;;;12.40;99.90;;;;;;5037230;28;20277;-80
2023/05/15 05:50:27;;;;;;;27.27;19.07;;;12.40;99.90;;;;;;5037892;28;20209;-80
2023/05/15 05:52:53;;;;;;;29.00;19.43;;;12.40;99.90;;;;;;5037176;28;20353;-79
2023/05/15 05:55:19;;;;;;;29.87;19.80;;;12.40;99.90;;;;;;5021926;28;20230;-80
2023/05/15 05:57:45;;;;;;;23.97;17.83;;;12.40;99.90;;;;;;5019857;28;20202;-80
2023/05/15 06:00:11;;;;;;;24.60;17.97;;;12.50;99.90;;;;;;5036529;28;20222;-80
2023/05/15 06:02:37;;;;;;;25.77;17.93;;;12.50;99.90;;;;;;5021976;28;20260;-79
2023/05/15 06:05:03;;;;;;;24.63;18.73;;;12.50;99.90;;;;;;5037828;28;20180;-80
2023/05/15 06:07:29;;;;;;;23.40;18.47;;;12.50;99.90;;;;;;5023480;28;20247;-80
2023/05/15 06:09:55;;;;;;;25.37;19.07;;;12.40;99.90;;;;;;5022525;28;20245;-80
2023/05/15 06:12:21;;;;;;;26.83;18.47;;;12.50;99.90;;;;;;5036720;28;20207;-80
2023/05/15 06:14:46;;;;;;;23.83;18.77;;;12.50;99.90;;;;;;5020711;28;20193;-80
2023/05/15 06:17:15;;;;;;;25.10;19.20;;;12.50;99.90;;;;;;5022274;28;20169;-80
2023/05/15 06:19:40;;;;;;;24.87;20.17;;;12.60;99.90;;;;;;5021681;28;20252;-81
2023/05/15 06:22:06;;;;;;;25.50;19.80;;;12.70;99.90;;;;;;5022440;28;20180;-81
2023/05/15 06:24:32;;;;;;;26.80;20.23;;;12.70;99.90;;;;;;5021910;28;20199;-80
2023/05/15 06:26:57;;;;;;;26.53;20.90;;;12.70;99.90;;;;;;5021440;28;20192;-81
2023/05/15 06:29:23;;;;;;;30.83;23.70;;;12.80;99.90;;;;;;5020042;28;20613;-80
2023/05/15 06:31:48;;;;;;;30.90;23.00;;;12.80;99.90;;;;;;5041305;28;20197;-81
2023/05/15 06:34:14;;;;;;;30.80;22.10;;;12.90;99.90;;;;;;5027669;28;20224;-81
2023/05/15 06:36:40;;;;;;;31.20;21.97;;;13.10;99.90;;;;;;5041425;28;20628;-80
2023/05/15 06:39:05;;;;;;;26.93;21.40;;;13.20;99.90;;;;;;5026974;28;20616;-81
2023/05/15 06:41:34;;;;;;;28.07;20.63;;;13.30;99.90;;;;;;5026770;28;20296;-80
2023/05/15 06:44:00;;;;;;;23.97;19.67;;;13.30;99.90;;;;;;5042324;28;20184;-80
2023/05/15 06:46:25;;;;;;;25.67;17.43;;;13.30;99.90;;;;;;5025655;28;20181;-80
2023/05/15 06:48:51;;;;;;;22.53;17.20;;;13.30;99.90;;;;;;5026620;28;20505;-80
2023/05/15 06:51:16;;;;;;;27.00;17.37;;;13.20;99.90;;;;;;5041474;28;20711;-81
2023/05/15 06:53:42;;;;;;;25.13;17.83;;;13.10;99.90;;;;;;5041676;28;20204;-81
2023/05/15 06:56:08;;;;;;;24.63;18.13;;;13.00;99.90;;;;;;5041935;28;20185;-81
2023/05/15 06:58:33;;;;;;;20.27;16.03;;;13.00;99.90;;;;;;5026781;28;20184;-81
2023/05/15 07:01:02;;;;;;;19.63;16.30;;;12.90;99.90;;;;;;5026766;28;20656;-80
2023/05/15 07:03:28;;;;;;;23.17;17.27;;;12.90;99.90;;;;;;5041302;28;20195;-80
2023/05/15 07:05:54;;;;;;;21.07;15.97;;;13.00;99.90;;;;;;5040487;28;20181;-81
2023/05/15 07:08:19;;;;;;;23.20;16.37;;;13.00;99.90;;;;;;5041006;28;20193;-81
2023/05/15 07:10:45;;;;;;;19.33;16.00;;;13.00;99.90;;;;;;5025416;28;20189;-80
2023/05/15 07:13:10;;;;;;;22.70;16.27;;;13.10;99.90;;;;;;5041251;28;20220;-81
2023/05/15 07:15:36;;;;;;;20.70;15.77;;;13.10;99.90;;;;;;5026254;28;20169;-80
2023/05/15 07:18:02;;;;;;;23.20;15.40;;;13.10;99.90;;;;;;5024970;28;20177;-80
2023/05/15 07:20:27;;;;;;;20.57;15.80;;;13.30;99.90;;;;;;5024745;28;20221;-81
2023/05/15 07:22:53;;;;;;;21.37;15.97;;;13.30;99.90;;;;;;5025534;28;20193;-81
2023/05/15 07:25:18;;;;;;;21.60;16.87;;;13.30;99.90;;;;;;5026595;28;20177;-80
2023/05/15 07:27:44;;;;;;;24.40;16.60;;;13.40;99.90;;;;;;5028596;28;20179;-80
2023/05/15 07:30:10;;;;;;;21.00;16.40;;;13.20;99.90;;;;;;5026071;28;20193;-81
2023/05/15 07:32:35;;;;;;;20.13;16.77;;;13.20;99.90;;;;;;5026211;28;20177;-81
2023/05/15 07:35:03;;;;;;;19.97;15.53;;;13.20;99.90;;;;;;5045150;28;20208;-80
2023/05/15 07:37:28;;;;;;;21.60;15.97;;;13.30;99.90;;;;;;5025534;28;20180;-80
2023/05/15 07:39:55;;;;;;;21.70;16.30;;;13.30;99.90;;;;;;5044499;28;20200;-81
2023/05/15 07:42:20;;;;;;;22.70;16.77;;;13.40;99.90;;;;;;5025271;28;20196;-81
2023/05/15 07:44:46;;;;;;;21.77;17.27;;;13.50;99.90;;;;;;5026987;28;20185;-81
2023/05/15 07:47:11;;;;;;;19.37;16.17;;;13.60;99.90;;;;;;5044101;28;20182;-80
2023/05/15 07:49:37;;;;;;;25.67;17.23;;;13.70;99.90;;;;;;5043932;28;20184;-81
2023/05/15 07:52:02;;;;;;;18.63;15.63;;;13.80;99.90;;;;;;5024899;28;20173;-81
2023/05/15 07:54:30;;;;;;;20.37;16.53;;;13.70;99.90;;;;;;5025588;28;20745;-81
2023/05/15 07:56:56;;;;;;;26.10;15.70;;;13.60;99.90;;;;;;5040690;28;20177;-82
2023/05/15 07:59:21;;;;;;;21.30;15.93;;;13.50;99.90;;;;;;5025764;28;20185;-81
2023/05/15 08:01:47;;;;;;;21.73;15.47;;;13.60;99.90;;;;;;5040763;28;20205;-84
2023/05/15 08:04:13;;;;;;;20.03;14.30;;;13.60;99.90;;;;;;5024980;28;20276;-80
2023/05/15 08:06:41;;;;;;;21.20;15.57;;;13.70;99.90;;;;;;5040847;28;20185;-80
2023/05/15 08:09:07;;;;;;;20.33;14.50;;;13.80;99.90;;;;;;5025424;28;20184;-81
2023/05/15 08:11:32;;;;;;;18.37;14.53;;;13.80;99.90;;;;;;5025484;28;20610;-81
2023/05/15 08:13:58;;;;;;;17.47;14.17;;;13.90;99.90;;;;;;5025070;28;20208;-81
2023/05/15 08:16:23;;;;;;;18.77;15.33;;;14.00;99.90;;;;;;5039845;28;20173;-81
2023/05/15 08:18:52;;;;;;;21.83;14.70;;;14.00;99.90;;;;;;5025055;28;20201;-81
2023/05/15 08:21:17;;;;;;;21.43;14.73;;;14.00;99.90;;;;;;5025736;28;20236;-81
2023/05/15 08:23:43;;;;;;;19.13;13.97;;;14.10;99.90;;;;;;5026234;28;20180;-81
2023/05/15 08:26:08;;;;;;;20.97;15.10;;;14.20;99.90;;;;;;5025170;28;20670;-81
2023/05/15 08:28:34;;;;;;;23.70;15.57;;;14.20;99.90;;;;;;5024500;28;20188;-81
2023/05/15 08:31:00;;;;;;;19.13;14.67;;;14.30;1.00;;;;;;5039858;28;20201;-81
2023/05/15 08:33:25;;;;;;;15.87;13.77;;;14.30;1.00;;;;;;5024492;28;20256;-82
2023/05/15 08:35:51;;;;;;;20.30;15.13;;;14.40;1.00;;;;;;5039682;28;20184;-82
2023/05/15 08:38:16;;;;;;;16.50;13.63;;;14.50;1.00;;;;;;5039648;28;20181;-81
2023/05/15 08:40:45;;;;;;;19.27;14.10;;;14.50;1.00;;;;;;5024786;28;20216;-81
2023/05/15 08:43:14;;;;;;;16.97;12.90;;;14.70;1.00;;;;;;5023574;28;20214;-81
2023/05/15 08:45:40;;;;;;;19.83;14.50;;;14.70;1.00;;;;;;5024051;28;20184;-82
2023/05/15 08:48:12;;;;;;;19.40;13.67;;;14.60;1.00;;;;;;5025042;28;20172;-81
2023/05/15 08:50:39;;;;;;;19.47;15.10;;;14.60;1.00;;;;;;5040244;28;20304;-81
2023/05/15 08:53:05;;;;;;;18.23;14.50;;;14.70;1.00;;;;;;5022177;28;20201;-81
2023/05/15 08:55:31;;;;;;;16.47;14.07;;;14.80;1.00;;;;;;5023343;28;20194;-81
2023/05/15 08:57:58;;;;;;;24.47;15.17;;;14.80;1.00;;;;;;5023623;28;20179;-81
2023/05/15 09:00:25;;;;;;;18.20;13.67;;;14.80;1.00;;;;;;5038789;28;20273;-83
2023/05/15 09:02:53;;;;;;;21.63;13.33;;;14.80;1.00;;;;;;5021580;28;20174;-81
2023/05/15 09:05:19;;;;;;;16.60;12.77;;;14.90;1.00;;;;;;5023567;28;20311;-82
2023/05/15 09:07:46;;;;;;;17.70;13.17;;;14.90;1.00;;;;;;5024815;28;20195;-81
2023/05/15 09:10:12;;;;;;;15.37;11.67;;;14.80;1.00;;;;;;5024283;28;20193;-79
2023/05/15 09:12:43;;;;;;;18.40;12.40;;;15.00;1.00;;;;;;5025502;28;20270;-81
2023/05/15 09:15:16;;;;;;;17.93;12.43;;;15.00;1.00;;;;;;5040199;28;20197;-81
2023/05/15 09:17:42;;;;;;;15.97;12.00;;;15.00;1.00;;;;;;5025382;28;20165;-81
2023/05/15 09:20:27;;;;;;;15.83;11.97;;;15.00;1.00;;;;;;5039536;28;20568;-81
2023/05/15 09:22:53;;;;;;;16.00;11.77;;;15.10;1.00;;;;;;5038495;28;20522;-81
2023/05/15 09:25:52;;;;;;;15.53;12.00;;;15.10;1.00;;;;;;5024084;28;20180;-81
2023/05/15 09:28:32;;;;;;;17.23;11.97;;;15.30;1.00;;;;;;5061047;28;20185;-81
2023/05/15 09:31:00;;;;;;;13.80;10.03;;;15.30;99.90;;;;;;5037802;28;20197;-82
2023/05/15 09:33:38;;;;;;;12.33;10.23;;;15.30;99.90;;;;;;5023113;28;20200;-81
2023/05/15 09:36:05;;;;;;;15.20;9.90;;;15.40;99.90;;;;;;5023344;28;20222;-82
2023/05/15 09:38:57;;;;;;;13.20;9.93;;;15.40;99.90;;;;;;5023563;28;20177;-81
2023/05/15 09:41:25;;;;;;;14.10;10.50;;;15.40;99.90;;;;;;5023803;28;20189;-81
2023/05/15 09:43:51;;;;;;;12.80;11.07;;;15.40;99.90;;;;;;5020950;28;20249;-81
2023/05/15 09:46:16;;;;;;;15.67;9.87;;;15.40;99.90;;;;;;5037425;28;20177;-81
2023/05/15 09:48:42;;;;;;;14.83;9.93;;;15.50;99.90;;;;;;5036278;28;20275;-81
2023/05/15 09:51:18;;;;;;;13.03;10.63;;;15.60;99.90;;;;;;5022044;28;20212;-81
2023/05/15 09:53:54;;;;;;;12.80;10.00;;;15.60;99.90;;;;;;5036518;28;20203;-82
2023/05/15 09:56:20;;;;;;;11.83;9.53;;;15.70;99.90;;;;;;5023002;28;20180;-82
2023/05/15 09:58:57;;;;;;;13.87;10.77;;;15.90;99.90;;;;;;5022006;28;20170;-81
2023/05/15 10:01:49;;;;;;;13.50;10.87;;;16.00;99.90;;;;;;5035534;28;20193;-81
2023/05/15 10:05:04;;;;;;;12.93;10.03;;;16.00;99.90;;;;;;5019456;28;20177;-82
2023/05/15 10:08:33;;;;;;;13.17;10.03;;;16.10;99.90;;;;;;5023695;28;20262;-82
2023/05/15 10:11:18;;;;;;;11.67;9.50;;;16.30;99.90;;;;;;5017745;28;20283;-82
2023/05/15 10:14:15;;;;;;;12.27;9.27;;;16.40;99.90;;;;;;5021631;28;20201;-81
2023/05/15 10:16:40;;;;;;;12.97;8.60;;;16.30;98.90;;;;;;5037573;28;20168;-81
2023/05/15 10:22:00;;;;;;;11.50;9.07;;;16.70;99.90;;;;;;5107375;22;20405;-82
2023/05/15 10:25:01;;;;;;;10.00;7.80;;;16.70;1.00;;;;;;5087416;28;20178;-82
2023/05/15 10:27:31;;;;;;;12.50;7.70;;;16.40;54.20;;;;;;5106990;28;20176;-82
2023/05/15 10:30:15;;;;;;;10.17;8.03;;;15.70;99.90;;;;;;5104956;28;20198;-81
2023/05/15 10:32:44;;;;;;;11.00;8.73;;;16.90;47.80;;;;;;5086994;28;20189;-82
2023/05/15 10:35:15;;;;;;;11.10;9.43;;;16.80;46.30;;;;;;5087271;28;20209;-82
2023/05/15 10:41:04;;;;;;;;;;;;;;;;;;;;;
2023/05/15 10:46:38;;;;;;;9.50;7.20;;;17.90;1.00;;;;;;5084887;28;20189;-83
2023/05/15 10:49:05;;;;;;;16.07;8.00;;;17.30;1.00;;;;;;5105069;28;20174;-82
2023/05/15 10:51:36;;;;;;;10.57;7.67;;;17.30;1.00;;;;;;5086561;28;20213;-81
2023/05/15 10:54:14;;;;;;;9.53;7.27;;;17.50;1.00;;;;;;5086821;28;20193;-82
2023/05/15 10:56:51;;;;;;;13.17;8.43;;;17.40;1.00;;;;;;5086325;28;20623;-82
2023/05/15 10:59:42;;;;;;;11.50;7.83;;;17.30;1.00;;;;;;5087118;28;20188;-81
2023/05/15 11:02:22;;;;;;;13.03;8.90;;;17.70;1.00;;;;;;5080566;28;20213;-83
2023/05/15 11:04:59;;;;;;;11.00;8.83;;;17.60;1.00;;;;;;5102142;28;20163;-82
2023/05/15 11:07:25;;;;;;;8.43;6.70;;;17.60;1.00;;;;;;5083085;28;20201;-83
2023/05/15 11:09:52;;;;;;;8.30;6.97;;;17.70;1.00;;;;;;5083351;28;20281;-83
2023/05/15 11:12:18;;;;;;;14.70;8.70;;;17.80;1.00;;;;;;5083034;28;20205;-83
2023/05/15 11:14:53;;;;;;;10.77;7.87;;;17.90;1.00;;;;;;5102142;28;20199;-83
2023/05/15 11:17:18;;;;;;;12.90;8.43;;;18.00;1.00;;;;;;5103634;28;20166;-83
2023/05/15 11:19:50;;;;;;;9.17;7.67;;;18.00;1.00;;;;;;5088179;28;20217;-83
2023/05/15 11:22:21;;;;;;;17.03;8.43;;;18.10;1.00;;;;;;5087232;28;20276;-83
2023/05/15 11:24:57;;;;;;;8.70;7.33;;;18.20;1.00;;;;;;5105515;28;20178;-83
2023/05/15 11:27:25;;;;;;;8.67;7.33;;;18.20;99.90;;;;;;5106116;28;20162;-83
2023/05/15 11:30:10;;;;;;;10.67;8.13;;;18.30;99.90;;;;;;5106064;28;20190;-83
2023/05/15 11:32:50;;;;;;;11.43;8.37;;;18.30;99.90;;;;;;5104091;28;20634;-83
2023/05/15 11:35:33;;;;;;;14.93;8.37;;;18.40;99.90;;;;;;5085220;28;20205;-83
2023/05/15 11:38:02;;;;;;;9.87;7.60;;;18.30;99.90;;;;;;5087994;28;20230;-83
2023/05/15 11:40:47;;;;;;;10.77;7.87;;;18.40;99.90;;;;;;5084080;28;20202;-84
2023/05/15 11:43:36;;;;;;;16.63;8.13;;;18.50;99.90;;;;;;5104963;28;20238;-83
2023/05/15 11:46:05;;;;;;;11.30;7.87;;;18.60;99.90;;;;;;5076937;28;20200;-83
2023/05/15 11:48:33;;;;;;;12.60;8.97;;;18.60;99.90;;;;;;5084264;28;20189;-82
2023/05/15 11:51:00;;;;;;;13.13;10.43;;;18.70;99.90;;;;;;5085719;28;20194;-83
2023/05/15 11:53:28;;;;;;;13.57;9.90;;;18.80;99.90;;;;;;5085760;28;20217;-82
2023/05/15 11:55:53;;;;;;;13.40;9.67;;;18.90;1.00;;;;;;5101763;28;20178;-81
2023/05/15 11:58:20;;;;;;;12.23;9.53;;;19.00;99.90;;;;;;5081835;28;20179;-82
2023/05/15 12:00:47;;;;;;;11.87;9.40;;;18.90;99.90;;;;;;5098301;28;20660;-81
2023/05/15 12:03:15;;;;;;;10.60;9.37;;;19.00;77.70;;;;;;5080451;28;20178;-81
2023/05/15 12:05:41;;;;;;;11.90;8.00;;;19.10;1.00;;;;;;5080743;28;20182;-81
2023/05/15 12:08:11;;;;;;;11.77;9.03;;;19.00;99.90;;;;;;5099547;28;20193;-80
2023/05/15 12:10:41;;;;;;;8.90;7.47;;;19.10;1.00;;;;;;5081403;28;20276;-81
2023/05/15 12:13:07;;;;;;;10.17;6.23;;;19.10;1.00;;;;;;5098986;28;20184;-81
2023/05/15 12:15:36;;;;;;;9.03;6.73;;;19.20;1.00;;;;;;5081003;28;20264;-81
2023/05/15 12:18:02;;;;;;;12.70;7.23;;;19.20;1.00;;;;;;5079973;28;20642;-81
2023/05/15 12:20:28;;;;;;;9.67;6.70;;;19.10;1.00;;;;;;5097637;28;20281;-81
2023/05/15 12:22:54;;;;;;;6.80;5.67;;;19.20;1.00;;;;;;5099430;28;20211;-81
2023/05/15 12:25:19;;;;;;;6.70;5.77;;;19.30;99.90;;;;;;5079520;28;20265;-82
2023/05/15 12:27:45;;;;;;;9.87;7.30;;;19.40;99.90;;;;;;5098162;28;20659;-81
2023/05/15 12:30:13;;;;;;;13.73;6.63;;;19.40;99.90;;;;;;5096864;28;20206;-80
2023/05/15 12:32:39;;;;;;;10.20;6.47;;;19.30;99.90;;;;;;5097793;28;20182;-80
2023/05/15 12:35:05;;;;;;;7.30;6.10;;;19.60;99.90;;;;;;5079748;28;20673;-81
2023/05/15 12:37:34;;;;;;;12.73;9.67;;;19.50;1.00;;;;;;5098228;28;20174;-80
2023/05/15 12:40:03;;;;;;;12.93;7.20;;;19.60;99.90;;;;;;5079253;28;20190;-81
2023/05/15 12:42:29;;;;;;;7.37;6.43;;;19.60;1.00;;;;;;5079252;28;20173;-81
2023/05/15 12:44:55;;;;;;;10.50;8.97;;;19.80;10.50;;;;;;5098037;28;20190;-83
2023/05/15 12:47:26;;;;;;;11.33;9.13;;;20.00;1.00;;;;;;5082411;28;20304;-84
2023/05/15 12:50:00;;;;;;;9.73;8.73;;;20.20;99.90;;;;;;5101691;28;20194;-83